createdAt,value
2018-06-18T00:00:37.021Z,1009.48
2018-06-18T00:01:36.933Z,1009.48
2018-06-18T00:02:36.967Z,1009.48
2018-06-18T00:03:36.960Z,1009.50
2018-06-18T00:04:36.975Z,1009.53
2018-06-18T00:05:37.033Z,1009.53
2018-06-18T00:06:37.034Z,1009.51
2018-06-18T00:07:36.969Z,1009.55
2018-06-18T00:08:36.966Z,1009.55
2018-06-18T00:09:37.035Z,1009.54
2018-06-18T00:10:36.973Z,1009.59
2018-06-18T00:11:37.037Z,1009.59
2018-06-18T00:12:37.015Z,1009.61
2018-06-18T00:13:37.005Z,1009.61
2018-06-18T00:14:37.063Z,1009.63
2018-06-18T00:15:36.960Z,1009.59
2018-06-18T00:16:36.947Z,1009.63
2018-06-18T00:17:37.013Z,1009.60
2018-06-18T00:18:37.055Z,1009.65
2018-06-18T00:19:37.020Z,1009.62
2018-06-18T00:20:36.939Z,1009.68
2018-06-18T00:21:37.044Z,1009.68
2018-06-18T00:22:37.003Z,1009.67
2018-06-18T00:23:37.049Z,1009.71
2018-06-18T00:24:36.981Z,1009.75
2018-06-18T00:25:37.046Z,1009.73
2018-06-18T00:26:37.045Z,1009.73
2018-06-18T00:27:37.080Z,1009.76
2018-06-18T00:28:37.014Z,1009.74
2018-06-18T00:29:36.984Z,1009.75
2018-06-18T00:30:37.013Z,1009.78
2018-06-18T00:31:37.034Z,1009.77
2018-06-18T00:32:37.071Z,1009.78
2018-06-18T00:33:37.083Z,1009.78
2018-06-18T00:34:37.081Z,1009.77
2018-06-18T00:35:37.030Z,1009.81
2018-06-18T00:36:37.090Z,1009.80
2018-06-18T00:37:36.950Z,1009.79
2018-06-18T00:38:37.089Z,1009.78
2018-06-18T00:39:37.131Z,1009.77
2018-06-18T00:40:37.089Z,1009.77
2018-06-18T00:41:37.088Z,1009.75
2018-06-18T00:42:37.014Z,1009.72
2018-06-18T00:43:37.098Z,1009.71
2018-06-18T00:44:37.014Z,1009.68
2018-06-18T00:45:37.034Z,1009.69
2018-06-18T00:46:37.000Z,1009.63
2018-06-18T00:47:37.091Z,1009.63
2018-06-18T00:48:37.037Z,1009.61
2018-06-18T00:49:37.088Z,1009.61
2018-06-18T00:50:37.085Z,1009.56
2018-06-18T00:51:36.983Z,1009.55
2018-06-18T00:52:36.966Z,1009.57
2018-06-18T00:53:37.023Z,1009.55
2018-06-18T00:54:37.065Z,1009.55
2018-06-18T00:55:37.100Z,1009.59
2018-06-18T00:56:36.992Z,1009.57
2018-06-18T00:57:36.990Z,1009.63
2018-06-18T00:58:37.100Z,1009.66
2018-06-18T00:59:37.045Z,1009.66
2018-06-18T01:00:37.103Z,1009.66
2018-06-18T01:01:37.035Z,1009.66
2018-06-18T01:02:37.131Z,1009.67
2018-06-18T01:03:36.968Z,1009.65
2018-06-18T01:04:37.072Z,1009.67
2018-06-18T01:05:37.013Z,1009.65
2018-06-18T01:06:37.106Z,1009.65
2018-06-18T01:07:37.073Z,1009.64
2018-06-18T01:08:36.974Z,1009.61
2018-06-18T01:09:37.108Z,1009.63
2018-06-18T01:10:37.076Z,1009.62
2018-06-18T01:11:37.055Z,1009.60
2018-06-18T01:12:36.994Z,1009.56
2018-06-18T01:13:37.069Z,1009.59
2018-06-18T01:14:37.068Z,1009.60
2018-06-18T01:15:37.070Z,1009.62
2018-06-18T01:16:37.037Z,1009.55
2018-06-18T01:17:37.067Z,1009.57
2018-06-18T01:18:36.958Z,1009.57
2018-06-18T01:19:36.987Z,1009.60
2018-06-18T01:20:36.989Z,1009.63
2018-06-18T01:21:37.084Z,1009.63
2018-06-18T01:22:37.006Z,1009.61
2018-06-18T01:23:37.063Z,1009.63
2018-06-18T01:24:37.061Z,1009.63
2018-06-18T01:25:36.989Z,1009.62
2018-06-18T01:26:37.084Z,1009.64
2018-06-18T01:27:37.036Z,1009.63
2018-06-18T01:28:37.010Z,1009.62
2018-06-18T01:29:37.107Z,1009.64
2018-06-18T01:30:37.148Z,1009.62
2018-06-18T01:31:37.006Z,1009.61
2018-06-18T01:32:37.061Z,1009.58
2018-06-18T01:33:37.096Z,1009.58
2018-06-18T01:34:37.097Z,1009.57
2018-06-18T01:35:37.093Z,1009.59
2018-06-18T01:36:37.028Z,1009.62
2018-06-18T01:37:37.027Z,1009.65
2018-06-18T01:38:37.031Z,1009.66
2018-06-18T01:39:37.028Z,1009.67
2018-06-18T01:40:37.028Z,1009.71
2018-06-18T01:41:37.101Z,1009.76
2018-06-18T01:42:37.034Z,1009.74
2018-06-18T01:43:37.101Z,1009.75
2018-06-18T01:44:37.118Z,1009.74
2018-06-18T01:45:37.038Z,1009.69
2018-06-18T01:46:37.042Z,1009.69
2018-06-18T01:47:37.036Z,1009.65
2018-06-18T01:48:37.110Z,1009.62
2018-06-18T01:49:37.104Z,1009.63
2018-06-18T01:50:37.103Z,1009.63
2018-06-18T01:51:37.041Z,1009.63
2018-06-18T01:52:37.043Z,1009.61
2018-06-18T01:53:37.077Z,1009.61
2018-06-18T01:54:37.077Z,1009.60
2018-06-18T01:55:37.131Z,1009.52
2018-06-18T01:56:37.183Z,1009.54
2018-06-18T01:57:37.104Z,1009.55
2018-06-18T01:58:37.110Z,1009.51
2018-06-18T01:59:37.112Z,1009.46
2018-06-18T02:00:37.113Z,1009.48
2018-06-18T02:01:37.142Z,1009.55
2018-06-18T02:02:37.077Z,1009.55
2018-06-18T02:03:37.030Z,1009.57
2018-06-18T02:04:37.139Z,1009.58
2018-06-18T02:05:37.085Z,1009.65
2018-06-18T02:06:37.114Z,1009.65
2018-06-18T02:07:37.118Z,1009.67
2018-06-18T02:08:37.078Z,1009.66
2018-06-18T02:09:37.020Z,1009.62
2018-06-18T02:10:37.077Z,1009.56
2018-06-18T02:11:37.090Z,1009.52
2018-06-18T02:12:37.054Z,1009.47
2018-06-18T02:13:37.041Z,1009.44
2018-06-18T02:14:37.073Z,1009.42
2018-06-18T02:15:37.118Z,1009.39
2018-06-18T02:16:37.082Z,1009.39
2018-06-18T02:17:37.040Z,1009.40
2018-06-18T02:18:37.063Z,1009.46
2018-06-18T02:19:37.119Z,1009.40
2018-06-18T02:20:37.039Z,1009.44
2018-06-18T02:21:37.113Z,1009.41
2018-06-18T02:22:37.118Z,1009.40
2018-06-18T02:23:37.084Z,1009.43
2018-06-18T02:24:37.088Z,1009.49
2018-06-18T02:25:37.166Z,1009.47
2018-06-18T02:26:37.153Z,1009.49
2018-06-18T02:27:37.050Z,1009.49
2018-06-18T02:28:37.029Z,1009.49
2018-06-18T02:29:37.170Z,1009.52
2018-06-18T02:30:37.155Z,1009.55
2018-06-18T02:31:37.035Z,1009.58
2018-06-18T02:32:37.129Z,1009.59
2018-06-18T02:33:37.071Z,1009.58
2018-06-18T02:34:37.177Z,1009.55
2018-06-18T02:35:37.037Z,1009.58
2018-06-18T02:36:37.161Z,1009.56
2018-06-18T02:37:37.189Z,1009.54
2018-06-18T02:38:37.198Z,1009.50
2018-06-18T02:39:37.160Z,1009.44
2018-06-18T02:40:37.157Z,1009.44
2018-06-18T02:41:37.072Z,1009.47
2018-06-18T02:42:37.167Z,1009.46
2018-06-18T02:43:37.137Z,1009.48
2018-06-18T02:44:37.070Z,1009.47
2018-06-18T02:45:37.137Z,1009.51
2018-06-18T02:46:37.177Z,1009.53
2018-06-18T02:47:37.140Z,1009.55
2018-06-18T02:48:37.099Z,1009.59
2018-06-18T02:49:37.170Z,1009.60
2018-06-18T02:50:37.078Z,1009.63
2018-06-18T02:51:37.102Z,1009.62
2018-06-18T02:52:37.139Z,1009.64
2018-06-18T02:53:37.181Z,1009.58
2018-06-18T02:54:37.148Z,1009.59
2018-06-18T02:55:37.145Z,1009.56
2018-06-18T02:56:37.185Z,1009.57
2018-06-18T02:57:37.086Z,1009.56
2018-06-18T02:58:41.614Z,1009.61
2018-06-18T02:59:37.154Z,1009.56
2018-06-18T03:00:37.082Z,1009.49
2018-06-18T03:01:37.151Z,1009.46
2018-06-18T03:02:37.156Z,1009.45
2018-06-18T03:03:37.156Z,1009.44
2018-06-18T03:04:37.088Z,1009.43
2018-06-18T03:05:37.125Z,1009.39
2018-06-18T03:06:37.093Z,1009.48
2018-06-18T03:07:37.155Z,1009.47
2018-06-18T03:08:37.193Z,1009.49
2018-06-18T03:09:37.172Z,1009.47
2018-06-18T03:10:37.158Z,1009.48
2018-06-18T03:11:37.118Z,1009.46
2018-06-18T03:12:37.092Z,1009.46
2018-06-18T03:13:37.137Z,1009.46
2018-06-18T03:14:37.049Z,1009.43
2018-06-18T03:15:37.054Z,1009.43
2018-06-18T03:16:37.141Z,1009.41
2018-06-18T03:17:37.122Z,1009.40
2018-06-18T03:18:37.140Z,1009.40
2018-06-18T03:19:37.110Z,1009.44
2018-06-18T03:20:37.140Z,1009.44
2018-06-18T03:21:37.088Z,1009.47
2018-06-18T03:22:37.027Z,1009.48
2018-06-18T03:23:37.225Z,1009.45
2018-06-18T03:24:37.067Z,1009.46
2018-06-18T03:25:37.180Z,1009.44
2018-06-18T03:26:37.192Z,1009.45
2018-06-18T03:27:37.169Z,1009.45
2018-06-18T03:28:37.166Z,1009.52
2018-06-18T03:29:37.207Z,1009.57
2018-06-18T03:30:37.210Z,1009.62
2018-06-18T03:31:37.116Z,1009.71
2018-06-18T03:32:37.168Z,1009.73
2018-06-18T03:33:37.175Z,1009.68
2018-06-18T03:34:37.176Z,1009.65
2018-06-18T03:35:37.125Z,1009.68
2018-06-18T03:36:37.174Z,1009.70
2018-06-18T03:37:37.106Z,1009.69
2018-06-18T03:38:37.177Z,1009.67
2018-06-18T03:39:37.174Z,1009.63
2018-06-18T03:40:37.175Z,1009.64
2018-06-18T03:41:37.175Z,1009.63
2018-06-18T03:42:37.108Z,1009.67
2018-06-18T03:43:37.147Z,1009.69
2018-06-18T03:44:37.098Z,1009.69
2018-06-18T03:45:37.204Z,1009.72
2018-06-18T03:46:37.150Z,1009.74
2018-06-18T03:47:37.159Z,1009.73
2018-06-18T03:48:37.157Z,1009.70
2018-06-18T03:49:37.192Z,1009.70
2018-06-18T03:50:37.205Z,1009.70
2018-06-18T03:51:37.112Z,1009.72
2018-06-18T03:52:37.157Z,1009.68
2018-06-18T03:53:37.091Z,1009.68
2018-06-18T03:54:37.216Z,1009.68
2018-06-18T03:55:37.157Z,1009.65
2018-06-18T03:56:37.184Z,1009.64
2018-06-18T03:57:37.212Z,1009.61
2018-06-18T03:58:37.146Z,1009.62
2018-06-18T03:59:37.094Z,1009.62
2018-06-18T04:00:37.091Z,1009.57
2018-06-18T04:01:37.215Z,1009.51
2018-06-18T04:02:37.206Z,1009.49
2018-06-18T04:03:37.186Z,1009.51
2018-06-18T04:04:37.185Z,1009.52
2018-06-18T04:05:37.307Z,1009.51
2018-06-18T04:06:37.193Z,1009.53
2018-06-18T04:07:37.147Z,1009.54
2018-06-18T04:08:37.187Z,1009.59
2018-06-18T04:09:37.129Z,1009.62
2018-06-18T04:10:37.191Z,1009.62
2018-06-18T04:11:37.130Z,1009.65
2018-06-18T04:12:37.193Z,1009.69
2018-06-18T04:13:37.099Z,1009.70
2018-06-18T04:14:37.105Z,1009.68
2018-06-18T04:15:37.226Z,1009.67
2018-06-18T04:16:37.101Z,1009.65
2018-06-18T04:17:37.171Z,1009.66
2018-06-18T04:18:37.176Z,1009.65
2018-06-18T04:19:37.228Z,1009.68
2018-06-18T04:20:37.198Z,1009.66
2018-06-18T04:21:37.123Z,1009.67
2018-06-18T04:22:37.222Z,1009.64
2018-06-18T04:23:37.163Z,1009.61
2018-06-18T04:24:37.166Z,1009.61
2018-06-18T04:25:37.239Z,1009.55
2018-06-18T04:26:37.163Z,1009.57
2018-06-18T04:27:37.204Z,1009.58
2018-06-18T04:28:37.126Z,1009.50
2018-06-18T04:29:37.179Z,1009.47
2018-06-18T04:30:37.182Z,1009.45
2018-06-18T04:31:37.235Z,1009.43
2018-06-18T04:32:37.127Z,1009.41
2018-06-18T04:33:37.211Z,1009.42
2018-06-18T04:34:37.164Z,1009.44
2018-06-18T04:35:37.141Z,1009.44
2018-06-18T04:36:37.141Z,1009.48
2018-06-18T04:37:37.226Z,1009.48
2018-06-18T04:38:37.208Z,1009.43
2018-06-18T04:39:37.150Z,1009.42
2018-06-18T04:40:37.211Z,1009.39
2018-06-18T04:41:37.211Z,1009.39
2018-06-18T04:42:37.151Z,1009.41
2018-06-18T04:43:37.214Z,1009.41
2018-06-18T04:44:37.189Z,1009.42
2018-06-18T04:45:37.174Z,1009.39
2018-06-18T04:46:37.243Z,1009.40
2018-06-18T04:47:37.125Z,1009.38
2018-06-18T04:48:37.217Z,1009.38
2018-06-18T04:49:37.193Z,1009.44
2018-06-18T04:50:37.119Z,1009.47
2018-06-18T04:51:37.189Z,1009.52
2018-06-18T04:52:37.163Z,1009.52
2018-06-18T04:53:37.250Z,1009.54
2018-06-18T04:54:37.178Z,1009.55
2018-06-18T04:55:37.180Z,1009.56
2018-06-18T04:56:37.249Z,1009.62
2018-06-18T04:57:37.254Z,1009.61
2018-06-18T04:58:37.188Z,1009.62
2018-06-18T04:59:37.244Z,1009.60
2018-06-18T05:00:37.239Z,1009.58
2018-06-18T05:01:37.185Z,1009.59
2018-06-18T05:02:37.202Z,1009.61
2018-06-18T05:03:37.167Z,1009.59
2018-06-18T05:04:37.227Z,1009.61
2018-06-18T05:05:37.229Z,1009.65
2018-06-18T05:06:37.227Z,1009.64
2018-06-18T05:07:37.215Z,1009.67
2018-06-18T05:08:37.234Z,1009.62
2018-06-18T05:09:37.167Z,1009.60
2018-06-18T05:10:37.234Z,1009.63
2018-06-18T05:11:37.254Z,1009.64
2018-06-18T05:12:37.237Z,1009.65
2018-06-18T05:13:37.236Z,1009.64
2018-06-18T05:14:37.243Z,1009.66
2018-06-18T05:15:37.245Z,1009.67
2018-06-18T05:16:37.171Z,1009.66
2018-06-18T05:17:37.168Z,1009.66
2018-06-18T05:18:37.173Z,1009.72
2018-06-18T05:19:37.178Z,1009.69
2018-06-18T05:20:37.308Z,1009.70
2018-06-18T05:21:37.174Z,1009.73
2018-06-18T05:22:37.179Z,1009.75
2018-06-18T05:23:37.241Z,1009.74
2018-06-18T05:24:37.175Z,1009.75
2018-06-18T05:25:37.172Z,1009.68
2018-06-18T05:26:37.245Z,1009.66
2018-06-18T05:27:37.176Z,1009.58
2018-06-18T05:28:37.246Z,1009.55
2018-06-18T05:29:37.176Z,1009.57
2018-06-18T05:30:37.178Z,1009.55
2018-06-18T05:31:37.252Z,1009.64
2018-06-18T05:32:37.266Z,1009.62
2018-06-18T05:33:37.248Z,1009.68
2018-06-18T05:34:37.150Z,1009.66
2018-06-18T05:35:37.282Z,1009.66
2018-06-18T05:36:37.287Z,1009.66
2018-06-18T05:37:37.159Z,1009.66
2018-06-18T05:38:37.282Z,1009.66
2018-06-18T05:39:37.298Z,1009.72
2018-06-18T05:40:37.343Z,1009.69
2018-06-18T05:41:37.259Z,1009.69
2018-06-18T05:42:37.228Z,1009.69
2018-06-18T05:43:37.222Z,1009.73
2018-06-18T05:44:37.208Z,1009.72
2018-06-18T05:45:37.218Z,1009.74
2018-06-18T05:46:37.174Z,1009.75
2018-06-18T05:47:37.284Z,1009.76
2018-06-18T05:48:37.241Z,1009.78
2018-06-18T05:49:37.185Z,1009.82
2018-06-18T05:50:37.319Z,1009.80
2018-06-18T05:51:37.296Z,1009.81
2018-06-18T05:52:37.297Z,1009.80
2018-06-18T05:53:37.241Z,1009.81
2018-06-18T05:54:37.287Z,1009.76
2018-06-18T05:55:37.264Z,1009.79
2018-06-18T05:56:37.242Z,1009.84
2018-06-18T05:57:37.240Z,1009.80
2018-06-18T05:58:37.306Z,1009.77
2018-06-18T05:59:37.165Z,1009.85
2018-06-18T06:00:37.293Z,1009.85
2018-06-18T06:01:37.266Z,1009.91
2018-06-18T06:02:37.238Z,1009.89
2018-06-18T06:03:37.218Z,1009.94
2018-06-18T06:04:37.157Z,1009.88
2018-06-18T06:05:37.204Z,1009.86
2018-06-18T06:06:37.192Z,1009.88
2018-06-18T06:07:37.170Z,1009.85
2018-06-18T06:08:37.267Z,1009.89
2018-06-18T06:09:37.259Z,1009.87
2018-06-18T06:10:37.273Z,1009.90
2018-06-18T06:11:37.192Z,1009.96
2018-06-18T06:12:37.162Z,1009.96
2018-06-18T06:13:37.234Z,1009.99
2018-06-18T06:14:37.278Z,1009.98
2018-06-18T06:15:37.296Z,1010.03
2018-06-18T06:16:37.210Z,1009.95
2018-06-18T06:17:37.212Z,1009.91
2018-06-18T06:18:37.211Z,1009.96
2018-06-18T06:19:37.211Z,1009.90
2018-06-18T06:20:37.214Z,1009.89
2018-06-18T06:21:37.315Z,1009.85
2018-06-18T06:22:37.211Z,1009.88
2018-06-18T06:23:37.297Z,1009.83
2018-06-18T06:24:37.282Z,1009.85
2018-06-18T06:25:37.282Z,1009.84
2018-06-18T06:26:37.177Z,1009.82
2018-06-18T06:27:37.321Z,1009.77
2018-06-18T06:28:37.308Z,1009.81
2018-06-18T06:29:37.291Z,1009.79
2018-06-18T06:30:37.193Z,1009.80
2018-06-18T06:31:37.262Z,1009.77
2018-06-18T06:32:37.248Z,1009.78
2018-06-18T06:33:37.206Z,1009.79
2018-06-18T06:34:37.245Z,1009.80
2018-06-18T06:35:37.245Z,1009.79
2018-06-18T06:36:37.251Z,1009.82
2018-06-18T06:37:37.254Z,1009.83
2018-06-18T06:38:37.245Z,1009.82
2018-06-18T06:39:37.292Z,1009.81
2018-06-18T06:40:37.294Z,1009.80
2018-06-18T06:41:37.269Z,1009.85
2018-06-18T06:42:37.257Z,1009.84
2018-06-18T06:43:37.320Z,1009.90
2018-06-18T06:44:37.296Z,1009.87
2018-06-18T06:45:37.236Z,1009.89
2018-06-18T06:46:37.295Z,1009.85
2018-06-18T06:47:37.228Z,1009.80
2018-06-18T06:48:37.229Z,1009.77
2018-06-18T06:49:37.311Z,1009.81
2018-06-18T06:50:37.234Z,1009.84
2018-06-18T06:51:37.235Z,1009.85
2018-06-18T06:52:37.232Z,1009.87
2018-06-18T06:53:37.238Z,1009.86
2018-06-18T06:54:37.322Z,1009.90
2018-06-18T06:55:37.261Z,1009.89
2018-06-18T06:56:37.272Z,1009.95
2018-06-18T06:57:37.331Z,1009.94
2018-06-18T06:58:37.283Z,1009.99
2018-06-18T06:59:37.261Z,1009.99
2018-06-18T07:00:37.275Z,1010.03
2018-06-18T07:01:37.285Z,1010.04
2018-06-18T07:02:37.381Z,1010.05
2018-06-18T07:03:37.332Z,1010.03
2018-06-18T07:04:37.267Z,1010.02
2018-06-18T07:05:37.246Z,1010.06
2018-06-18T07:06:37.325Z,1010.09
2018-06-18T07:07:37.275Z,1010.08
2018-06-18T07:08:37.275Z,1010.09
2018-06-18T07:09:37.333Z,1010.06
2018-06-18T07:10:37.281Z,1010.10
2018-06-18T07:11:37.273Z,1010.16
2018-06-18T07:12:37.220Z,1010.19
2018-06-18T07:13:37.407Z,1010.19
2018-06-18T07:14:37.341Z,1010.22
2018-06-18T07:15:37.353Z,1010.24
2018-06-18T07:16:37.285Z,1010.27
2018-06-18T07:17:37.327Z,1010.25
2018-06-18T07:18:37.244Z,1010.29
2018-06-18T07:19:37.261Z,1010.23
2018-06-18T07:20:37.315Z,1010.26
2018-06-18T07:21:37.224Z,1010.26
2018-06-18T07:22:37.307Z,1010.28
2018-06-18T07:23:37.342Z,1010.26
2018-06-18T07:24:37.358Z,1010.30
2018-06-18T07:25:37.321Z,1010.28
2018-06-18T07:26:37.257Z,1010.34
2018-06-18T07:27:37.327Z,1010.30
2018-06-18T07:28:37.259Z,1010.29
2018-06-18T07:29:37.326Z,1010.29
2018-06-18T07:30:37.424Z,1010.32
2018-06-18T07:31:37.326Z,1010.29
2018-06-18T07:32:37.262Z,1010.31
2018-06-18T07:33:37.330Z,1010.32
2018-06-18T07:34:37.283Z,1010.31
2018-06-18T07:35:37.325Z,1010.35
2018-06-18T07:36:37.309Z,1010.36
2018-06-18T07:37:37.332Z,1010.35
2018-06-18T07:38:37.432Z,1010.31
2018-06-18T07:39:37.316Z,1010.31
2018-06-18T07:40:37.233Z,1010.31
2018-06-18T07:41:37.309Z,1010.28
2018-06-18T07:42:37.311Z,1010.34
2018-06-18T07:43:37.365Z,1010.30
2018-06-18T07:44:37.200Z,1010.26
2018-06-18T07:45:37.297Z,1010.27
2018-06-18T07:46:37.256Z,1010.20
2018-06-18T07:47:37.315Z,1010.19
2018-06-18T07:48:37.215Z,1010.13
2018-06-18T07:49:37.203Z,1010.11
2018-06-18T07:50:37.297Z,1010.19
2018-06-18T07:51:37.326Z,1010.15
2018-06-18T07:52:37.298Z,1010.15
2018-06-18T07:53:37.230Z,1010.17
2018-06-18T07:54:37.340Z,1010.24
2018-06-18T07:55:37.341Z,1010.24
2018-06-18T07:56:37.274Z,1010.27
2018-06-18T07:57:37.313Z,1010.30
2018-06-18T07:58:37.277Z,1010.29
2018-06-18T07:59:37.280Z,1010.28
2018-06-18T08:00:37.343Z,1010.28
2018-06-18T08:01:37.306Z,1010.30
2018-06-18T08:02:37.347Z,1010.27
2018-06-18T08:03:37.384Z,1010.27
2018-06-18T08:04:37.377Z,1010.30
2018-06-18T08:05:37.388Z,1010.30
2018-06-18T08:07:37.344Z,1010.24
2018-06-18T08:08:37.370Z,1010.21
2018-06-18T08:09:37.351Z,1010.26
2018-06-18T08:10:37.328Z,1010.26
2018-06-18T08:11:37.329Z,1010.31
2018-06-18T08:12:37.316Z,1010.30
2018-06-18T08:13:37.391Z,1010.29
2018-06-18T08:14:37.353Z,1010.31
2018-06-18T08:15:37.291Z,1010.30
2018-06-18T08:16:37.354Z,1010.25
2018-06-18T08:17:37.315Z,1010.23
2018-06-18T08:18:37.356Z,1010.23
2018-06-18T08:19:37.358Z,1010.21
2018-06-18T08:20:37.291Z,1010.22
2018-06-18T08:21:37.317Z,1010.21
2018-06-18T08:22:37.257Z,1010.19
2018-06-18T08:23:37.337Z,1010.18
2018-06-18T08:24:37.380Z,1010.24
2018-06-18T08:25:37.328Z,1010.17
2018-06-18T08:26:37.331Z,1010.20
2018-06-18T08:27:37.393Z,1010.19
2018-06-18T08:28:37.330Z,1010.18
2018-06-18T08:29:37.365Z,1010.17
2018-06-18T08:30:37.333Z,1010.20
2018-06-18T08:31:37.267Z,1010.18
2018-06-18T08:32:37.387Z,1010.15
2018-06-18T08:33:37.276Z,1010.13
2018-06-18T08:34:37.268Z,1010.14
2018-06-18T08:35:37.325Z,1010.12
2018-06-18T08:36:37.345Z,1010.09
2018-06-18T08:37:37.398Z,1010.10
2018-06-18T08:38:37.390Z,1010.12
2018-06-18T08:39:37.404Z,1010.05
2018-06-18T08:40:37.397Z,1010.06
2018-06-18T08:41:37.373Z,1010.11
2018-06-18T08:42:37.301Z,1010.07
2018-06-18T08:43:37.346Z,1010.07
2018-06-18T08:44:37.372Z,1010.10
2018-06-18T08:45:37.275Z,1010.08
2018-06-18T08:46:37.416Z,1010.13
2018-06-18T08:47:37.408Z,1010.11
2018-06-18T08:48:37.409Z,1010.15
2018-06-18T08:49:37.401Z,1010.10
2018-06-18T08:50:37.447Z,1010.13
2018-06-18T08:51:37.356Z,1010.14
2018-06-18T08:52:37.377Z,1010.09
2018-06-18T08:53:37.417Z,1010.09
2018-06-18T08:54:37.313Z,1010.07
2018-06-18T08:55:37.315Z,1010.12
2018-06-18T08:56:37.380Z,1010.11
2018-06-18T08:57:37.317Z,1010.15
2018-06-18T08:58:37.383Z,1010.19
2018-06-18T08:59:37.315Z,1010.19
2018-06-18T09:00:37.386Z,1010.15
2018-06-18T09:01:37.317Z,1010.12
2018-06-18T09:02:37.275Z,1010.19
2018-06-18T09:03:37.387Z,1010.19
2018-06-18T09:04:37.413Z,1010.18
2018-06-18T09:05:37.331Z,1010.23
2018-06-18T09:06:37.386Z,1010.23
2018-06-18T09:07:37.372Z,1010.26
2018-06-18T09:08:37.355Z,1010.25
2018-06-18T09:09:37.424Z,1010.21
2018-06-18T09:10:37.394Z,1010.19
2018-06-18T09:11:37.314Z,1010.23
2018-06-18T09:12:37.393Z,1010.23
2018-06-18T09:13:37.429Z,1010.18
2018-06-18T09:14:37.375Z,1010.19
2018-06-18T09:15:37.397Z,1010.25
2018-06-18T09:16:37.299Z,1010.21
2018-06-18T09:17:37.411Z,1010.19
2018-06-18T09:18:37.323Z,1010.20
2018-06-18T09:19:37.355Z,1010.17
2018-06-18T09:20:37.410Z,1010.16
2018-06-18T09:21:37.321Z,1010.14
2018-06-18T09:22:37.398Z,1010.09
2018-06-18T09:23:37.429Z,1010.09
2018-06-18T09:24:37.366Z,1010.06
2018-06-18T09:25:37.327Z,1010.07
2018-06-18T09:26:37.389Z,1010.10
2018-06-18T09:27:37.266Z,1010.07
2018-06-18T09:28:37.288Z,1010.09
2018-06-18T09:29:37.329Z,1010.09
2018-06-18T09:30:37.356Z,1010.06
2018-06-18T09:31:37.391Z,1010.09
2018-06-18T09:32:37.416Z,1010.08
2018-06-18T09:33:37.314Z,1010.06
2018-06-18T09:34:37.221Z,1010.06
2018-06-18T09:35:37.401Z,1010.07
2018-06-18T09:36:37.367Z,1010.04
2018-06-18T09:37:37.418Z,1010.09
2018-06-18T09:38:37.409Z,1010.13
2018-06-18T09:39:37.416Z,1010.13
2018-06-18T09:40:37.313Z,1010.11
2018-06-18T09:41:37.332Z,1010.11
2018-06-18T09:42:37.388Z,1010.12
2018-06-18T09:43:37.377Z,1010.10
2018-06-18T09:44:37.316Z,1010.10
2018-06-18T09:45:37.377Z,1010.05
2018-06-18T09:46:37.453Z,1010.07
2018-06-18T09:47:37.436Z,1010.10
2018-06-18T09:48:37.451Z,1010.07
2018-06-18T09:49:37.381Z,1010.07
2018-06-18T09:50:37.443Z,1010.06
2018-06-18T09:51:37.322Z,1010.06
2018-06-18T09:52:37.395Z,1010.05
2018-06-18T09:53:37.441Z,1010.03
2018-06-18T09:54:37.374Z,1010.01
2018-06-18T09:55:37.445Z,1010.01
2018-06-18T09:56:37.450Z,1010.00
2018-06-18T09:57:37.356Z,1010.00
2018-06-18T09:58:37.445Z,1010.00
2018-06-18T09:59:37.385Z,1010.04
2018-06-18T10:00:37.361Z,1010.06
2018-06-18T10:01:37.402Z,1010.03
2018-06-18T10:02:37.453Z,1010.04
2018-06-18T10:03:37.390Z,1010.01
2018-06-18T10:04:37.424Z,1010.00
2018-06-18T10:05:37.365Z,1010.00
2018-06-18T10:06:37.426Z,1010.02
2018-06-18T10:07:37.434Z,1009.99
2018-06-18T10:08:37.505Z,1010.01
2018-06-18T10:09:37.428Z,1009.98
2018-06-18T10:10:37.487Z,1009.99
2018-06-18T10:11:37.431Z,1009.99
2018-06-18T10:12:37.368Z,1010.01
2018-06-18T10:13:37.324Z,1009.97
2018-06-18T10:14:37.333Z,1009.97
2018-06-18T10:15:37.453Z,1009.96
2018-06-18T10:16:37.335Z,1009.96
2018-06-18T10:17:37.459Z,1009.97
2018-06-18T10:18:37.413Z,1009.99
2018-06-18T10:19:37.467Z,1009.98
2018-06-18T10:20:37.401Z,1010.00
2018-06-18T10:21:37.434Z,1009.99
2018-06-18T10:22:37.410Z,1010.01
2018-06-18T10:23:37.415Z,1009.94
2018-06-18T10:24:37.461Z,1009.97
2018-06-18T10:25:37.377Z,1009.99
2018-06-18T10:26:37.407Z,1010.00
2018-06-18T10:27:37.443Z,1010.01
2018-06-18T10:28:37.500Z,1009.96
2018-06-18T10:29:37.479Z,1010.00
2018-06-18T10:30:37.383Z,1009.98
2018-06-18T10:31:37.420Z,1009.95
2018-06-18T10:32:37.446Z,1009.93
2018-06-18T10:33:37.488Z,1009.91
2018-06-18T10:34:37.447Z,1009.91
2018-06-18T10:35:37.472Z,1009.91
2018-06-18T10:36:37.424Z,1009.93
2018-06-18T10:37:37.452Z,1009.92
2018-06-18T10:38:37.417Z,1009.95
2018-06-18T10:39:37.471Z,1009.95
2018-06-18T10:40:37.472Z,1009.99
2018-06-18T10:41:37.491Z,1010.02
2018-06-18T10:42:37.390Z,1010.01
2018-06-18T10:43:37.411Z,1010.01
2018-06-18T10:44:37.386Z,1009.99
2018-06-18T10:45:37.363Z,1010.05
2018-06-18T10:46:37.393Z,1010.02
2018-06-18T10:47:37.407Z,1010.01
2018-06-18T10:48:37.362Z,1009.98
2018-06-18T10:49:37.446Z,1009.99
2018-06-18T10:50:37.341Z,1010.00
2018-06-18T10:51:37.454Z,1009.98
2018-06-18T10:52:37.366Z,1009.98
2018-06-18T10:53:37.456Z,1009.97
2018-06-18T10:54:37.497Z,1009.96
2018-06-18T10:55:37.498Z,1009.99
2018-06-18T10:56:37.363Z,1009.97
2018-06-18T10:57:37.416Z,1009.92
2018-06-18T10:58:37.435Z,1009.94
2018-06-18T10:59:37.465Z,1009.95
2018-06-18T11:00:37.458Z,1009.95
2018-06-18T11:01:37.382Z,1009.94
2018-06-18T11:02:37.528Z,1009.97
2018-06-18T11:03:37.446Z,1009.96
2018-06-18T11:04:37.426Z,1009.93
2018-06-18T11:05:37.401Z,1009.94
2018-06-18T11:06:37.468Z,1009.95
2018-06-18T11:07:37.401Z,1009.95
2018-06-18T11:08:37.471Z,1009.92
2018-06-18T11:09:37.400Z,1009.93
2018-06-18T11:10:37.469Z,1009.92
2018-06-18T11:11:37.405Z,1009.90
2018-06-18T11:12:37.444Z,1009.90
2018-06-18T11:13:37.406Z,1009.93
2018-06-18T11:14:37.480Z,1009.93
2018-06-18T11:15:37.473Z,1009.94
2018-06-18T11:16:37.673Z,1009.88
2018-06-18T11:17:37.406Z,1009.88
2018-06-18T11:18:37.478Z,1009.85
2018-06-18T11:19:37.412Z,1009.88
2018-06-18T11:20:37.473Z,1009.86
2018-06-18T11:21:37.415Z,1009.88
2018-06-18T11:22:37.411Z,1009.91
2018-06-18T11:23:37.479Z,1009.91
2018-06-18T11:24:37.495Z,1009.97
2018-06-18T11:25:37.495Z,1009.95
2018-06-18T11:26:37.549Z,1009.93
2018-06-18T11:27:37.457Z,1009.94
2018-06-18T11:28:37.395Z,1009.92
2018-06-18T11:29:37.484Z,1009.89
2018-06-18T11:30:37.383Z,1009.91
2018-06-18T11:31:37.507Z,1009.91
2018-06-18T11:32:37.553Z,1009.89
2018-06-18T11:33:37.388Z,1009.88
2018-06-18T11:34:37.422Z,1009.83
2018-06-18T11:35:37.488Z,1009.81
2018-06-18T11:36:37.426Z,1009.80
2018-06-18T11:37:37.489Z,1009.80
2018-06-18T11:38:37.423Z,1009.76
2018-06-18T11:39:37.541Z,1009.81
2018-06-18T11:40:37.464Z,1009.85
2018-06-18T11:41:37.515Z,1009.85
2018-06-18T11:42:37.426Z,1009.82
2018-06-18T11:43:37.536Z,1009.82
2018-06-18T11:44:37.495Z,1009.86
2018-06-18T11:45:37.497Z,1009.86
2018-06-18T11:46:37.494Z,1009.89
2018-06-18T11:47:37.505Z,1009.89
2018-06-18T11:48:37.494Z,1009.90
2018-06-18T11:49:37.445Z,1009.88
2018-06-18T11:50:37.496Z,1009.85
2018-06-18T11:51:37.430Z,1009.75
2018-06-18T11:52:37.537Z,1009.77
2018-06-18T11:53:37.495Z,1009.76
2018-06-18T11:54:37.432Z,1009.72
2018-06-18T11:55:37.537Z,1009.76
2018-06-18T11:56:37.477Z,1009.74
2018-06-18T11:57:37.516Z,1009.75
2018-06-18T11:58:37.458Z,1009.74
2018-06-18T11:59:37.412Z,1009.71
2018-06-18T12:00:37.466Z,1009.66
2018-06-18T12:01:37.479Z,1009.70
2018-06-18T12:02:37.468Z,1009.72
2018-06-18T12:03:37.489Z,1009.73
2018-06-18T12:04:37.525Z,1009.77
2018-06-18T12:05:37.480Z,1009.74
2018-06-18T12:06:37.420Z,1009.72